Orlando, FL (32801)

3:44 AM EDT on April 30, 2017 (GMT -0400)
WFTV, Channel 9 | | Change Station

Elev 92 ft 28.54 °N, 81.37 °W | Updated 12 seconds ago

Mostly Cloudy
Mostly Cloudy
74.3 °F
Feels Like 73 °F
N
2.1
Wind Variable Wind from SE
Gusts 8.0 mph

Today
High -- | Low -- °F
--% Chance of Precip.
Yesterday
High -- | Low -- °F
Precip. -- in
Pressure 30.10 in
Visibility 10.0 miles
Clouds Scattered Clouds 1600 ft
Scattered Clouds 2300 ft
Mostly Cloudy 6000 ft
Heat Index 73 °F
Dew Point 71 °F
Humidity 88%
Rainfall 0.00 in
Snow Depth Not available.
6:45 AM 8:00 PM
Waxing Crescent, 20% visible
SPECI KORL 300709Z AUTO 12007KT 10SM SCT016 SCT023 BKN060 24/21 A3010 RMK AO2 T02390211
Pressure 30.10 in
Visibility 10.0 miles
Clouds Scattered Clouds 1600 ft
Scattered Clouds 2300 ft
Mostly Cloudy 6000 ft
Heat Index 73 °F
Dew Point 71 °F
Humidity 88%
Rainfall 0.00 in
Snow Depth Not available.
6:45 AM 8:00 PM
Waxing Crescent, 20% visible
SPECI KORL 300709Z AUTO 12007KT 10SM SCT016 SCT023 BKN060 24/21 A3010 RMK AO2 T02390211

Get Severe Weather Alerts

Thanks for signing up!

Be on the lookout for a verification email in your inbox.

You'll start receiving the daily forecast at 8 AM.

×

10-Day Weather Forecast

Almanac

Astronomy

Apr. 30, 2017 Rise Set
Actual Time
Civil Twilight
Nautical Twilight
Astronomical Twilight
Moon
Length of Visible Light
Length of Day
Tomorrow will be .
, % of the Moon is Illuminated

Today's Extremes

State Highs State Lows

Community

WunderPhotos

WunderBlog® & News

Nearby

Air Quality

  Air Quality AQ Index Pollutant
Not available.

Snow Depth

Station Depth Elevation

Earthquake Activity

City Distance Mag. Time & Date
Minimum magnitude displayed is 2.5.

Coastal Water Temperatures

Place Temperature

Stations

Nearby Weather Stations

Station Location Temp. Windchill Dew Point Humidity Wind Precip. Elev Updated Type
                   

Watches & Warnings

There are currently no watches in effect.